Latest Weather Observations for Camden

IDN60801

Issued at 3:03 pm EST Wednesday 1 June 2016 (issued every 30 minutes, with the page automatically refreshed every 10 minutes)

About weather observations | Map of weather stations | Latest weather observations for NSW | Other Formats
Station Details ID: 068192 Name: CAMDEN AIRPORT AWS Lat: -34.04 Lon: 150.69 Height: 73.9 m
Data from the previous 72 hours. | See also: Recent months at Camden
Date/Time
EST
Temp
°C
App
Temp
°C
Dew
Point
Rel
Hum
%
Delta-T
°C
Wind Press
QNH
hPa
Press
MSL
hPa
Rain
since 9 am
mm
Dir
 
Spd
km/h
Gust
km/h
Spd
kts
Gust
kts
01/03:00pm 16.2 15.1 9.8 66 3.3 ESE 6 9 3 5 1026.3 1026.4 0.0
01/02:30pm 16.4 15.6 9.8 65 3.4 WSW 4 7 2 4 1026.5 1026.6 0.0
01/02:00pm 16.2 16.3 10.1 67 3.2 CALM 0 7 0 4 1026.7 1026.8 0.0
01/01:30pm 15.9 14.9 10.4 70 2.9 SW 6 9 3 5 1027.0 1027.1 0.0
01/01:00pm 15.5 14.4 10.5 72 2.6 SW 7 11 4 6 1027.0 1027.1 0.0
01/12:30pm 15.3 14.2 10.5 73 2.5 SSW 7 11 4 6 1027.6 1027.7 0.0
01/12:00pm 14.9 14.0 10.7 76 2.2 SSE 6 11 3 6 1028.2 1028.3 0.0
01/11:30am 14.7 13.8 11.3 80 1.8 S 7 13 4 7 1028.6 1028.7 0.0
01/11:00am 14.5 13.3 11.5 82 1.6 SSW 9 13 5 7 1028.9 1029.0 0.0
01/10:30am 13.9 12.3 11.4 85 1.3 SSW 11 15 6 8 1029.2 1029.3 0.0
01/10:00am 13.3 11.3 11.5 89 1.0 SSW 13 19 7 10 1029.5 1029.5 0.0
01/09:30am 13.0 11.9 12.1 94 0.5 S 9 11 5 6 1029.5 1029.4 0.0
01/09:00am 12.4 11.3 11.8 96 0.3 S 9 11 5 6 1029.2 1029.2 5.4
01/08:30am 12.4 12.3 12.2 99 0.1 NE 4 9 2 5 1029.1 1029.1 5.4
01/08:00am 11.8 9.8 11.6 99 0.1 SW 13 17 7 9 1028.8 1028.8 5.4
01/07:30am 11.1 10.1 10.9 99 0.1 SSW 7 9 4 5 1028.9 1028.9 5.4
01/07:00am 10.7 9.6 10.5 99 0.1 S 7 11 4 6 1028.8 1028.8 5.4
01/06:38am 10.5 9.3 10.3 99 0.1 SSW 7 11 4 6 1028.6 1028.6 5.4
01/06:30am 10.4 10.5 10.2 99 0.1 CALM 0 7 0 4 1028.5 1028.5 5.4
01/06:10am 10.3 10.4 10.1 99 0.1 CALM 0 0 0 0 1028.2 1028.2 5.4
01/06:05am 10.2 10.3 10.1 99 0.1 CALM 0 0 0 0 1028.2 1028.2 5.4
01/06:00am 10.1 10.2 10.0 99 0.1 CALM 0 0 0 0 1028.2 1028.2 5.4
01/05:30am 9.9 9.9 9.8 99 0.1 CALM 0 0 0 0 1028.1 1028.1 5.4
01/05:00am 9.7 9.6 9.6 99 0.0 CALM 0 0 0 0 1027.9 1027.9 5.4
01/04:30am 9.7 9.6 9.6 99 0.1 CALM 0 0 0 0 1027.7 1027.7 5.4
01/04:00am 9.7 9.6 9.6 99 0.0 CALM 0 0 0 0 1027.7 1027.7 5.4
01/03:30am 9.9 9.9 9.8 99 0.1 CALM 0 0 0 0 1027.7 1027.7 5.4
01/03:00am 10.3 10.4 10.1 99 0.1 CALM 0 0 0 0 1027.9 1027.9 5.4
01/02:30am 10.5 10.6 10.3 99 0.1 CALM 0 0 0 0 1028.0 1028.0 5.4
01/02:00am 10.7 10.9 10.5 99 0.1 CALM 0 0 0 0 1028.2 1028.2 5.4
01/01:30am 10.5 10.6 10.3 99 0.1 CALM 0 0 0 0 1028.4 1028.4 5.4
01/01:00am 11.2 11.5 11.0 99 0.1 CALM 0 0 0 0 1028.5 1028.5 5.4
01/12:51am 11.2 11.5 11.0 99 0.1 CALM 0 0 0 0 1028.6 1028.6 5.4
01/12:30am 11.2 11.5 11.0 99 0.1 CALM 0 0 0 0 1028.7 1028.7 5.4
01/12:00am 11.5 11.9 11.3 99 0.1 CALM 0 0 0 0 1028.8 1028.8 5.4
 
Date/Time
EST
Temp
°C
App
Temp
°C
Dew
Point
Rel
Hum
%
Delta-T
°C
Wind Press
QNH
hPa
Press
MSL
hPa
Rain
since 9 am
mm
Dir
 
Spd
km/h
Gust
km/h
Spd
kts
Gust
kts
31/11:30pm 11.6 12.0 11.4 99 0.1 CALM 0 0 0 0 1029.2 1029.2 5.2
31/11:00pm 11.7 11.0 11.5 99 0.1 N 6 9 3 5 1029.5 1029.4 5.2
31/10:30pm 11.8 11.5 11.6 99 0.1 NW 4 7 2 4 1029.6 1029.5 5.2
31/10:00pm 11.8 12.3 11.5 98 0.2 CALM 0 0 0 0 1029.6 1029.5 5.2
31/09:30pm 11.9 11.1 11.6 98 0.2 SW 7 11 4 6 1029.7 1029.7 5.2
31/09:00pm 12.0 11.7 11.5 97 0.3 W 4 7 2 4 1029.7 1029.7 5.0
31/08:45pm 12.1 11.5 11.6 97 0.3 W 6 9 3 5 1029.7 1029.7 4.8
31/08:30pm 12.2 12.6 11.4 95 0.4 CALM 0 6 0 3 1029.8 1029.8 4.4
31/08:29pm 12.2 12.6 11.4 95 0.4 CALM 0 6 0 3 1029.8 1029.8 4.2
31/08:00pm 12.4 11.6 11.1 92 0.7 SW 6 7 3 4 1029.5 1029.4 3.0
31/07:30pm 12.3 11.4 11.2 93 0.6 S 7 9 4 5 1029.2 1029.2 2.8
31/07:00pm 12.3 11.3 11.0 92 0.7 SSW 7 9 4 5 1029.0 1029.0 2.8
31/06:30pm 12.5 12.5 11.1 91 0.7 SSW 2 7 1 4 1028.8 1028.8 2.8
31/06:00pm 12.9 11.9 11.1 89 0.9 SSE 7 9 4 5 1028.6 1028.6 2.8
31/05:30pm 13.2 11.5 11.3 88 1.0 S 11 17 6 9 1028.2 1028.2 2.8
31/05:00pm 13.4 12.2 11.5 88 1.0 SSE 9 11 5 6 1028.1 1028.1 2.8
31/04:58pm 13.3 12.0 11.4 88 1.0 SSE 9 15 5 8 1028.1 1028.1 2.8
31/04:30pm 13.7 12.6 11.8 88 1.0 SSW 9 15 5 8 1027.9 1027.9 2.8
31/04:01pm 14.4 13.8 12.3 87 1.1 ENE 7 9 4 5 1027.8 1027.8 2.2
31/04:00pm 14.5 13.9 12.2 86 1.2 ENE 7 9 4 5 1027.8 1027.8 2.0
31/03:30pm 14.8 14.2 12.3 85 1.4 SSW 7 11 4 6 1027.7 1027.7 1.4
31/03:00pm 15.2 14.5 13.1 87 1.2 SSW 9 13 5 7 1027.5 1027.5 1.4
31/02:30pm 14.6 15.4 12.5 87 1.1 CALM 0 6 0 3 1027.4 1027.4 1.2
31/02:00pm 14.7 13.1 11.5 81 1.7 SSE 11 15 6 8 1027.4 1027.4 0.6
31/01:30pm 15.6 12.7 9.7 68 3.1 SSE 15 20 8 11 1027.5 1027.5 0.0
31/01:00pm 17.3 15.7 8.7 57 4.4 ESE 7 11 4 6 1027.5 1027.5 0.0
31/12:30pm 17.8 16.3 9.2 57 4.5 SE 7 13 4 7 1027.6 1027.6 0.0
31/12:00pm 17.5 15.1 8.6 56 4.6 SE 11 17 6 9 1028.1 1028.1 0.0
31/11:30am 17.0 15.0 8.7 58 4.3 SSE 9 13 5 7 1028.6 1028.6 0.0
31/11:00am 15.7 14.7 8.9 64 3.5 ESE 4 7 2 4 1029.1 1029.1 0.0
31/10:30am 15.0 14.7 8.7 66 3.2 CALM 0 0 0 0 1029.5 1029.4 0.0
31/10:00am 13.5 13.3 9.0 74 2.3 CALM 0 0 0 0 1029.7 1029.7 0.0
31/09:30am 12.3 12.1 9.0 80 1.7 CALM 0 0 0 0 1029.8 1029.8 0.0
31/09:00am 10.4 10.0 8.3 87 1.0 CALM 0 0 0 0 1029.7 1029.7 0.0
31/08:30am 8.7 8.1 7.6 93 0.5 CALM 0 0 0 0 1029.7 1029.7 0.0
31/08:00am 7.2 5.1 6.8 97 0.2 S 7 11 4 6 1029.5 1029.4 0.0
31/07:30am 5.9 4.9 5.5 97 0.2 CALM 0 0 0 0 1029.3 1029.3 0.0
31/07:00am 5.2 4.1 5.1 99 0.0 CALM 0 0 0 0 1029.1 1029.1 0.0
31/06:30am 4.2 2.8 3.8 97 0.2 CALM 0 0 0 0 1028.7 1028.7 0.0
31/06:00am 3.4 1.8 2.7 95 0.3 CALM 0 0 0 0 1028.3 1028.3 0.0
31/05:30am 3.6 2.1 3.2 97 0.2 CALM 0 0 0 0 1028.0 1028.0 0.0
31/05:00am 3.3 1.8 2.9 97 0.2 CALM 0 0 0 0 1027.7 1027.7 0.0
31/04:30am 3.1 1.6 2.8 98 0.1 CALM 0 0 0 0 1027.8 1027.8 0.0
31/04:00am 2.7 1.1 2.3 97 0.2 CALM 0 0 0 0 1027.7 1027.7 0.0
31/03:30am 1.9 0.1 1.3 96 0.2 CALM 0 0 0 0 1027.6 1027.6 0.0
31/03:00am 2.0 0.2 1.4 96 0.2 CALM 0 0 0 0 1027.7 1027.7 0.0
31/02:30am 2.8 1.2 2.4 97 0.2 CALM 0 0 0 0 1027.6 1027.6 0.0
31/02:00am 2.1 0.3 1.1 93 0.4 CALM 0 0 0 0 1027.7 1027.7 0.0
31/01:30am 2.3 0.5 1.3 93 0.4 CALM 0 0 0 0 1027.7 1027.7 0.0
31/01:00am 3.5 2.0 2.8 95 0.3 CALM 0 0 0 0 1027.7 1027.7 0.0
31/12:30am 2.9 1.2 1.9 93 0.4 CALM 0 0 0 0 1027.9 1027.9 0.0
31/12:00am 2.9 1.2 1.9 93 0.4 CALM 0 0 0 0 1028.1 1028.1 0.0
 
Date/Time
EST
Temp
°C
App
Temp
°C
Dew
Point
Rel
Hum
%
Delta-T
°C
Wind Press
QNH
hPa
Press
MSL
hPa
Rain
since 9 am
mm
Dir
 
Spd
km/h
Gust
km/h
Spd
kts
Gust
kts
30/11:30pm 3.7 1.4 2.5 92 0.5 E 4 9 2 5 1028.2 1028.2 0.0
30/11:00pm 4.0 2.3 2.0 87 0.8 CALM 0 0 0 0 1028.0 1028.0 0.0
30/10:30pm 3.9 0.9 2.3 89 0.6 N 7 7 4 4 1027.8 1027.8 0.0
30/10:00pm 4.5 1.6 2.5 87 0.8 N 7 9 4 5 1027.8 1027.8 0.0
30/09:30pm 4.9 2.2 3.6 91 0.5 N 7 9 4 5 1027.7 1027.7 0.0
30/09:00pm 4.9 3.3 2.3 83 1.0 CALM 0 0 0 0 1027.5 1027.5 0.0
30/08:30pm 6.8 4.9 3.1 77 1.6 NNE 2 6 1 3 1027.4 1027.4 0.0
30/08:00pm 6.8 5.0 3.4 79 1.4 NNW 2 7 1 4 1027.2 1027.2 0.0
30/07:30pm 7.2 5.8 3.4 77 1.6 CALM 0 0 0 0 1026.9 1026.9 0.0
30/07:00pm 8.6 7.1 2.8 67 2.4 CALM 0 0 0 0 1026.6 1026.6 0.0
30/06:30pm 9.9 7.7 3.4 64 2.8 S 4 7 2 4 1026.4 1026.4 0.0
30/06:00pm 10.8 9.3 2.9 58 3.4 CALM 0 0 0 0 1026.0 1026.0 0.0
30/05:30pm 14.1 11.6 3.8 50 4.7 ENE 6 7 3 4 1025.6 1025.6 0.0
30/05:00pm 15.1 12.5 3.3 45 5.3 E 6 9 3 5 1025.2 1025.2 0.0
30/04:30pm 16.5 13.5 1.0 35 6.8 ESE 6 9 3 5 1024.7 1024.7 0.0
30/04:00pm 18.1 15.6 -0.7 28 8.0 WSW 2 9 1 5 1024.3 1024.3 0.0
30/03:30pm 18.0 14.5 -1.3 27 8.2 SSW 7 11 4 6 1024.2 1024.2 0.0
30/03:00pm 17.9 14.4 -1.3 27 8.1 ENE 7 13 4 7 1024.1 1024.1 0.0
30/02:30pm 18.4 15.1 -0.9 27 8.3 E 6 9 3 5 1023.9 1023.9 0.0
30/02:00pm 18.6 15.2 -0.7 27 8.3 NNW 7 15 4 8 1023.9 1023.9 0.0
30/01:30pm 18.1 14.8 -0.2 29 7.9 NNW 7 13 4 7 1024.0 1024.0 0.0
30/01:00pm 17.6 14.3 0.3 31 7.5 SE 7 15 4 8 1024.2 1024.2 0.0
30/12:30pm 17.6 15.1 1.6 34 7.2 WSW 4 9 2 5 1024.3 1024.3 0.0
30/12:00pm 17.3 14.5 2.1 36 6.8 SE 6 11 3 6 1024.7 1024.7 0.0
30/11:30am 16.6 13.3 2.6 39 6.4 W 9 11 5 6 1025.1 1025.1 0.0
30/11:00am 16.3 14.1 3.4 42 5.9 W 4 9 2 5 1025.5 1025.5 0.0
30/10:30am 14.6 11.0 2.8 45 5.3 WSW 11 17 6 9 1025.9 1025.9 0.0
30/10:00am 13.1 9.0 2.4 48 4.7 WSW 13 17 7 9 1026.1 1026.1 0.0
30/09:30am 12.1 8.6 3.6 56 3.8 SW 11 17 6 9 1026.0 1026.0 0.0
30/09:00am 9.3 8.0 3.9 69 2.4 CALM 0 0 0 0 1025.7 1025.7 0.0
30/08:30am 6.2 4.9 4.0 86 0.9 CALM 0 0 0 0 1025.6 1025.6 0.0
30/08:00am 2.7 1.0 1.7 93 0.4 CALM 0 4 0 2 1025.5 1025.5 0.0
30/07:30am 0.0 -3.4 -0.6 96 0.2 S 7 9 4 5 1025.0 1025.0 0.0
30/07:00am 0.1 -1.9 -0.3 97 0.1 CALM 0 0 0 0 1024.7 1024.7 0.0
30/06:30am -0.1 -2.2 -0.5 97 0.1 CALM 0 0 0 0 1024.3 1024.3 0.0
30/06:00am -0.5 -2.6 -0.9 97 0.1 CALM 0 6 0 3 1023.8 1023.8 0.0
30/05:30am 0.2 -1.8 -0.2 97 0.1 CALM 0 0 0 0 1023.5 1023.5 0.0
30/05:01am -0.3 -2.4 -0.7 97 0.1 CALM 0 0 0 0 1023.1 1023.1 0.0
30/05:00am -0.4 -2.5 -0.7 98 0.1 CALM 0 0 0 0 1023.1 1023.1 0.0
30/04:50am -0.2 -2.3 -0.5 98 0.1 CALM 0 0 0 0 1023.0 1023.0 0.0
30/04:30am -0.2 -2.3 -0.6 97 0.1 CALM 0 0 0 0 1022.9 1022.9 0.0
30/04:21am -0.3 -2.4 -0.7 97 0.1 CALM 0 0 0 0 1022.8 1022.8 0.0
30/04:11am 0.0 -2.0 -0.4 97 0.1 CALM 0 0 0 0 1022.6 1022.6 0.0
30/04:10am 0.1 -1.9 -0.3 97 0.1 CALM 0 0 0 0 1022.6 1022.6 0.0
30/04:00am 0.1 -1.9 -0.3 97 0.1 CALM 0 0 0 0 1022.6 1022.6 0.0
30/03:30am 0.0 -2.1 -0.6 96 0.2 CALM 0 0 0 0 1022.5 1022.5 0.0
30/03:22am -0.1 -2.9 -0.7 96 0.2 NNE 4 9 2 5 1022.5 1022.5 0.0
30/03:21am 0.0 -2.8 -0.6 96 0.2 NNE 4 9 2 5 1022.5 1022.5 0.0
30/03:20am 0.1 -2.7 -0.5 96 0.2 NNE 4 9 2 5 1022.5 1022.5 0.0
30/03:17am 0.0 -2.8 -0.4 97 0.1 N 4 9 2 5 1022.5 1022.5 0.0
30/03:00am 0.8 -1.1 0.4 97 0.1 CALM 0 0 0 0 1022.4 1022.4 0.0
30/02:37am -0.1 -2.3 -1.2 92 0.4 CALM 0 0 0 0 1022.3 1022.3 0.0
30/02:36am -0.3 -2.5 -1.6 91 0.4 CALM 0 0 0 0 1022.4 1022.4 0.0
30/02:30am 0.1 -2.4 -1.2 91 0.5 S 2 7 1 4 1022.3 1022.3 0.0
30/02:00am 1.0 -1.0 -0.1 92 0.4 CALM 0 0 0 0 1022.2 1022.2 0.0
30/01:30am 1.0 -1.0 0.0 93 0.4 CALM 0 0 0 0 1022.2 1022.2 0.0
30/01:00am 1.2 -0.8 0.2 93 0.4 CALM 0 0 0 0 1022.0 1022.0 0.0
30/12:30am 1.7 -0.2 0.4 91 0.5 CALM 0 2 0 1 1021.9 1021.9 0.0
30/12:00am 1.5 -1.3 -0.4 87 0.7 SSW 4 7 2 4 1021.9 1021.9 0.0
 
Date/Time
EST
Temp
°C
App
Temp
°C
Dew
Point
Rel
Hum
%
Delta-T
°C
Wind Press
QNH
hPa
Press
MSL
hPa
Rain
since 9 am
mm
Dir
 
Spd
km/h
Gust
km/h
Spd
kts
Gust
kts
29/11:30pm 3.1 1.3 1.5 89 0.6 CALM 0 0 0 0 1021.7 1021.7 0.0
29/11:00pm 2.3 0.3 -0.1 84 0.9 CALM 0 0 0 0 1021.6 1021.6 0.0
29/10:30pm 3.5 1.2 0.6 81 1.1 SE 2 6 1 3 1021.6 1021.6 0.0
29/10:00pm 4.4 0.8 0.4 75 1.5 SSW 9 11 5 6 1021.5 1021.5 0.0
29/09:30pm 4.6 1.3 0.2 73 1.7 SW 7 11 4 6 1021.3 1021.3 0.0
29/09:00pm 6.0 2.0 0.8 69 2.0 SSE 11 13 6 7 1021.1 1021.1 0.0
29/08:30pm 9.1 5.0 2.4 63 2.8 SW 13 19 7 10 1020.9 1020.9 0.0
29/08:00pm 9.2 6.2 2.1 61 3.0 WSW 7 9 4 5 1020.5 1020.5 0.0
29/07:30pm 10.3 6.4 1.4 54 3.7 SW 11 15 6 8 1020.2 1020.2 0.0
29/07:00pm 9.8 6.2 0.9 54 3.6 SW 9 15 5 8 1019.7 1019.7 0.0
29/06:30pm 10.4 7.2 1.0 52 3.9 W 7 9 4 5 1019.2 1019.2 0.0
29/06:00pm 11.1 6.7 0.5 48 4.4 WSW 13 15 7 8 1018.8 1018.8 0.0
29/05:30pm 12.2 8.2 0.6 45 4.8 W 11 13 6 7 1018.4 1018.4 0.0
29/05:00pm 13.8 10.4 -0.3 38 5.9 W 7 9 4 5 1018.0 1017.9 0.0
29/04:30pm 15.8 11.3 0.0 34 6.7 W 13 17 7 9 1017.5 1017.4 0.0
29/04:00pm 17.3 11.6 -0.4 30 7.6 WSW 19 26 10 14 1017.1 1017.0 0.0
29/03:30pm 18.1 12.8 -0.7 28 8.1 WSW 17 24 9 13 1016.7 1016.6 0.0

Other Formats:

Comma delimited format used in spreadsheet applications
http://www.bom.gov.au/fwo/IDN60801/IDN60801.94755.axf

JavaScript Object Notation format (JSON) in row-major order
http://www.bom.gov.au/fwo/IDN60801/IDN60801.94755.json